CGK weather

Soekarno-Hatta International Airport
Jakarta, Banten, Indonesia

Public forecast

Using degrees Celsius for public forecast. Weather courtesy of forecast.io.

Current aviation weather report (METAR) for Soekarno-Hatta International Airport

Retrieved 2019/12/10 16:30 UTC (0 seconds ago):

WIII 101630Z 26005KT 7000 FEW022 26/23 Q1010 NOSIG

Aviation forecast (TAF) for Soekarno-Hatta International Airport

Retrieved 2019/12/10 12:00 UTC (4 hours ago):

TAF WIII 101100Z 1012/1118 23005KT 8000 SCT020 BECMG 1101/1103 36010KT